Time;durP1;ratioP1;P1;durP2;ratioP2;P2;SDS_P1;SDS_P2;PMS_P1;PMS_P2;Temp;Humidity;BMP_temperature;BMP_pressure;BME280_temperature;BME280_humidity;BME280_pressure;Samples;Min_cycle;Max_cycle;Signal;HPM_P1;HPM_P2
2022/07/27 00:00:46;;;;;;;0.00;0.00;;;;;;;23.21;47.48;98326.50;5050521;28;20402;-71
2022/07/27 00:03:12;;;;;;;0.10;0.10;;;;;;;23.16;47.60;98334.91;5051854;28;20052;-72
2022/07/27 00:05:39;;;;;;;0.00;0.00;;;;;;;23.18;47.60;98327.63;5050741;28;20135;-71
2022/07/27 00:08:06;;;;;;;0.10;0.10;;;;;;;23.16;48.39;98328.75;5049297;28;20765;-72
2022/07/27 00:10:33;;;;;;;0.10;0.10;;;;;;;23.07;48.17;98341.09;5053804;28;20551;-71
2022/07/27 00:12:59;;;;;;;0.10;0.10;;;;;;;23.01;47.86;98336.31;5054750;28;20049;-73
2022/07/27 00:15:26;;;;;;;0.10;0.10;;;;;;;23.05;48.28;98336.88;5055811;28;20047;-72
2022/07/27 00:17:54;;;;;;;0.10;0.10;;;;;;;22.86;48.86;98344.88;5052189;28;20049;-71
2022/07/27 00:20:20;;;;;;;0.10;0.10;;;;;;;22.91;48.61;98334.59;5053319;28;20053;-71
2022/07/27 00:22:53;;;;;;;0.10;0.10;;;;;;;23.06;48.48;98328.72;5058179;28;20131;-72
2022/07/27 00:25:21;;;;;;;0.10;0.10;;;;;;;23.04;48.67;98332.53;5049330;28;20048;-71
2022/07/27 00:27:48;;;;;;;0.10;0.10;;;;;;;22.89;49.14;98333.88;5058132;28;20135;-71
2022/07/27 00:30:15;;;;;;;0.10;0.10;;;;;;;22.95;49.22;98328.84;5059367;28;20075;-71
2022/07/27 00:32:42;;;;;;;0.10;0.10;;;;;;;22.96;49.40;98332.34;5059504;28;20048;-72
2022/07/27 00:35:09;;;;;;;0.10;0.10;;;;;;;22.66;50.26;98340.44;5057409;28;20112;-72
2022/07/27 00:37:36;;;;;;;0.00;0.00;;;;;;;22.74;50.31;98341.44;5059295;28;20045;-71
2022/07/27 00:40:04;;;;;;;0.10;0.10;;;;;;;22.45;51.11;98345.81;5049444;28;20059;-71
2022/07/27 00:42:30;;;;;;;0.10;0.10;;;;;;;22.35;50.73;98343.13;5031674;28;20103;-71
2022/07/27 00:44:57;;;;;;;0.10;0.10;;;;;;;22.48;51.06;98341.03;5051085;28;20475;-72
2022/07/27 00:47:24;;;;;;;0.10;0.10;;;;;;;22.51;51.06;98337.25;5058339;28;20076;-71
2022/07/27 00:49:51;;;;;;;0.10;0.10;;;;;;;22.35;51.35;98335.09;5052707;28;20053;-71
2022/07/27 00:52:18;;;;;;;0.10;0.10;;;;;;;22.46;51.16;98343.00;5047623;28;20056;-71
2022/07/27 00:54:46;;;;;;;0.10;0.10;;;;;;;22.55;50.86;98336.84;5051105;28;20088;-72
2022/07/27 00:57:15;;;;;;;0.10;0.10;;;;;;;22.63;51.07;98336.22;5053959;28;20044;-71
2022/07/27 00:59:41;;;;;;;0.00;0.00;;;;;;;22.65;50.98;98331.59;5053636;28;20044;-71
2022/07/27 01:02:08;;;;;;;0.10;0.10;;;;;;;22.69;51.22;98321.50;5052213;28;20048;-71
2022/07/27 01:04:37;;;;;;;0.10;0.10;;;;;;;22.69;51.29;98324.16;5063505;28;20040;-72
2022/07/27 01:07:05;;;;;;;0.10;0.10;;;;;;;22.71;51.20;98316.84;5052608;28;20106;-70
2022/07/27 01:12:19;;;;;;;0.10;0.10;;;;;;;22.67;51.70;98310.09;5050936;28;20135;-71
2022/07/27 01:14:48;;;;;;;0.10;0.10;;;;;;;22.65;52.05;98309.41;5051578;28;20132;-70
2022/07/27 01:17:15;;;;;;;0.10;0.10;;;;;;;22.64;52.07;98303.22;5053173;28;20206;-71
2022/07/27 01:19:42;;;;;;;0.10;0.10;;;;;;;22.57;51.88;98305.56;5061287;28;20072;-71
2022/07/27 01:22:09;;;;;;;0.00;0.00;;;;;;;22.62;51.89;98307.00;5055700;28;20056;-71
2022/07/27 01:24:36;;;;;;;0.10;0.10;;;;;;;22.65;51.74;98299.53;5054967;28;20151;-71
2022/07/27 01:27:03;;;;;;;0.05;0.05;;;;;;;22.64;51.67;98292.53;5059568;28;20574;-70
2022/07/27 01:29:32;;;;;;;0.10;0.10;;;;;;;22.62;51.57;98294.50;5048482;28;20055;-71
2022/07/27 01:32:00;;;;;;;0.10;0.10;;;;;;;22.58;51.60;98296.53;5051747;28;20090;-71
2022/07/27 01:34:26;;;;;;;0.10;0.10;;;;;;;22.52;52.13;98293.59;5060083;28;20459;-71
2022/07/27 01:36:53;;;;;;;0.10;0.10;;;;;;;22.43;52.11;98284.59;5054190;28;20124;-70
2022/07/27 01:39:20;;;;;;;0.10;0.10;;;;;;;22.43;52.60;98295.25;5053377;28;20044;-70
2022/07/27 01:41:46;;;;;;;0.00;0.00;;;;;;;22.36;52.69;98293.25;5055266;28;20579;-71
2022/07/27 01:44:13;;;;;;;0.10;0.10;;;;;;;22.18;54.17;98289.56;5058018;28;20141;-70
2022/07/27 01:46:39;;;;;;;0.10;0.10;;;;;;;21.97;54.84;98280.75;5057703;28;20079;-71
2022/07/27 01:49:06;;;;;;;0.10;0.10;;;;;;;21.88;55.23;98285.88;5055404;28;20067;-71
2022/07/27 01:51:33;;;;;;;0.10;0.10;;;;;;;21.89;55.24;98290.25;5055649;28;20427;-70
2022/07/27 01:54:00;;;;;;;0.10;0.10;;;;;;;21.98;54.82;98280.59;5056418;28;20079;-71
2022/07/27 01:56:27;;;;;;;0.10;0.10;;;;;;;22.06;54.54;98280.75;5061958;28;20072;-71
2022/07/27 01:58:54;;;;;;;0.10;0.10;;;;;;;22.13;54.25;98279.25;5055300;28;20067;-71
2022/07/27 02:01:20;;;;;;;0.10;0.10;;;;;;;22.13;54.54;98276.59;5056421;28;20098;-72
2022/07/27 02:03:47;;;;;;;0.10;0.10;;;;;;;22.11;54.91;98272.38;5052088;28;20590;-71
2022/07/27 02:06:14;;;;;;;0.10;0.10;;;;;;;22.02;56.15;98276.69;5052168;28;20044;-70
2022/07/27 02:08:40;;;;;;;0.10;0.10;;;;;;;22.10;55.37;98271.53;5060659;28;20123;-70
2022/07/27 02:13:52;;;;;;;0.10;0.10;;;;;;;21.89;55.27;98271.59;5056433;28;20132;-71
2022/07/27 02:16:19;;;;;;;0.10;0.10;;;;;;;21.98;55.15;98269.94;5054648;28;20139;-70
2022/07/27 02:18:46;;;;;;;0.10;0.10;;;;;;;21.87;55.42;98273.53;5053974;28;20052;-71
2022/07/27 02:21:14;;;;;;;0.10;0.10;;;;;;;21.92;55.26;98273.16;5051741;28;20080;-70
2022/07/27 02:23:43;;;;;;;0.10;0.10;;;;;;;21.94;56.13;98275.69;5055153;28;20127;-71
2022/07/27 02:26:10;;;;;;;0.10;0.10;;;;;;;21.79;57.20;98269.81;5068646;28;20072;-70
2022/07/27 02:28:36;;;;;;;0.10;0.10;;;;;;;21.75;57.60;98273.72;5055735;28;20076;-70
2022/07/27 02:31:03;;;;;;;0.10;0.10;;;;;;;21.48;59.17;98279.56;5047326;28;20136;-71
2022/07/27 02:33:30;;;;;;;0.10;0.10;;;;;;;21.43;59.18;98280.97;5050536;28;20095;-70
2022/07/27 02:35:56;;;;;;;0.10;0.10;;;;;;;21.46;58.92;98275.34;5060188;28;20047;-70
2022/07/27 02:38:23;;;;;;;0.10;0.10;;;;;;;21.49;59.54;98281.28;5050887;28;20136;-70
2022/07/27 02:40:49;;;;;;;0.10;0.10;;;;;;;21.57;58.57;98284.13;5058842;28;20700;-70
2022/07/27 02:43:16;;;;;;;0.00;0.00;;;;;;;21.69;58.33;98285.75;5058303;28;20088;-70
2022/07/27 02:45:42;;;;;;;0.00;0.00;;;;;;;21.75;57.96;98287.06;5060182;28;20079;-70
2022/07/27 02:48:11;;;;;;;0.10;0.10;;;;;;;21.71;58.79;98277.63;5047254;28;20060;-71
2022/07/27 02:50:38;;;;;;;0.10;0.10;;;;;;;21.70;58.01;98271.44;5055256;28;20492;-70
2022/07/27 02:53:05;;;;;;;0.10;0.10;;;;;;;21.80;57.99;98271.50;5055506;28;20051;-70
2022/07/27 02:55:31;;;;;;;0.10;0.10;;;;;;;21.74;58.45;98272.88;5066092;28;20100;-70
2022/07/27 02:57:58;;;;;;;0.10;0.10;;;;;;;21.52;59.70;98277.50;5059446;28;20482;-71
2022/07/27 03:00:24;;;;;;;0.10;0.10;;;;;;;21.36;59.95;98285.13;5048339;28;20071;-70
2022/07/27 03:02:51;;;;;;;0.10;0.10;;;;;;;21.22;60.64;98280.94;5058337;28;20091;-71
2022/07/27 03:05:18;;;;;;;0.10;0.10;;;;;;;21.26;61.24;98284.19;5059962;28;20143;-71
2022/07/27 03:07:45;;;;;;;0.10;0.10;;;;;;;20.74;63.86;98288.47;5062160;28;20082;-70
2022/07/27 03:10:11;;;;;;;0.00;0.00;;;;;;;21.10;62.45;98272.16;5055410;28;20167;-70
2022/07/27 03:12:38;;;;;;;0.10;0.10;;;;;;;21.04;63.28;98280.66;5054722;28;20550;-69
2022/07/27 03:15:06;;;;;;;0.10;0.10;;;;;;;21.21;62.36;98281.91;5057078;28;20057;-71
2022/07/27 03:17:32;;;;;;;0.10;0.10;;;;;;;21.33;61.67;98274.72;5057640;28;20124;-71
2022/07/27 03:19:59;;;;;;;0.10;0.10;;;;;;;21.33;61.58;98280.03;5057052;28;20143;-69
2022/07/27 03:22:29;;;;;;;0.10;0.10;;;;;;;21.43;60.78;98283.63;5055734;28;20076;-71
2022/07/27 03:24:56;;;;;;;0.10;0.10;;;;;;;21.46;60.30;98289.53;5058283;28;20127;-71
2022/07/27 03:27:23;;;;;;;0.10;0.10;;;;;;;21.49;59.97;98291.09;5055602;28;20473;-70
2022/07/27 03:29:49;;;;;;;0.10;0.10;;;;;;;21.50;60.08;98295.47;5049388;28;20148;-72
2022/07/27 03:32:16;;;;;;;0.10;0.10;;;;;;;21.48;60.14;98287.56;5060018;28;20050;-71
2022/07/27 03:34:42;;;;;;;0.10;0.10;;;;;;;21.48;60.05;98281.38;5057134;28;20520;-73
2022/07/27 03:37:12;;;;;;;0.10;0.10;;;;;;;21.40;61.03;98283.88;5049947;28;20084;-70
2022/07/27 03:39:38;;;;;;;0.10;0.10;;;;;;;21.15;63.38;98282.41;5051832;28;20067;-70
2022/07/27 03:42:05;;;;;;;0.10;0.10;;;;;;;20.99;65.55;98279.31;5058672;28;20056;-71
2022/07/27 03:44:32;;;;;;;0.10;0.10;;;;;;;20.93;64.13;98283.34;5049741;28;20048;-71
2022/07/27 03:46:59;;;;;;;0.10;0.10;;;;;;;21.02;64.20;98276.41;5048973;28;20568;-70
2022/07/27 03:49:25;;;;;;;0.10;0.10;;;;;;;21.15;63.43;98283.25;5057814;28;20044;-70
2022/07/27 03:51:52;;;;;;;0.10;0.10;;;;;;;21.21;62.97;98285.44;5060313;28;20102;-70
2022/07/27 03:54:18;;;;;;;0.10;0.10;;;;;;;21.30;62.79;98293.63;5055009;28;20176;-70
2022/07/27 03:56:45;;;;;;;0.10;0.10;;;;;;;21.24;62.52;98295.81;5053384;28;20049;-70
2022/07/27 03:59:12;;;;;;;0.10;0.10;;;;;;;21.18;63.10;98295.47;5056962;28;20083;-70
2022/07/27 04:01:39;;;;;;;0.10;0.10;;;;;;;21.04;64.75;98288.66;5049289;28;20059;-71
2022/07/27 04:04:06;;;;;;;0.10;0.10;;;;;;;20.88;66.09;98282.00;5060982;28;20063;-70
2022/07/27 04:06:32;;;;;;;0.10;0.10;;;;;;;20.91;66.14;98285.25;5062306;28;20071;-70
2022/07/27 04:08:59;;;;;;;0.10;0.10;;;;;;;21.07;65.57;98291.06;5057617;28;20520;-70
2022/07/27 04:11:39;;;;;;;0.10;0.10;;;;;;;21.17;63.99;98297.28;5049275;28;20057;-70
2022/07/27 04:14:16;;;;;;;0.10;0.10;;;;;;;21.13;64.69;98308.34;5048450;28;20049;-70
2022/07/27 04:16:43;;;;;;;0.10;0.10;;;;;;;21.18;63.71;98301.66;5055536;28;20044;-71
2022/07/27 04:19:10;;;;;;;0.10;0.10;;;;;;;21.19;64.03;98305.19;5056155;28;20044;-70
2022/07/27 04:21:37;;;;;;;0.10;0.10;;;;;;;21.03;65.33;98297.56;5050373;28;20405;-67
2022/07/27 04:24:05;;;;;;;0.10;0.10;;;;;;;21.17;64.47;98297.28;5060513;28;20132;-67
2022/07/27 04:26:32;;;;;;;0.10;0.10;;;;;;;21.25;63.76;98309.97;5051748;28;20053;-67
2022/07/27 04:28:59;;;;;;;0.10;0.10;;;;;;;21.40;63.19;98315.84;5053577;28;20457;-67
2022/07/27 04:31:25;;;;;;;0.10;0.10;;;;;;;21.45;63.39;98313.66;5060064;28;20561;-67
2022/07/27 04:33:52;;;;;;;0.10;0.10;;;;;;;21.48;63.03;98314.22;5054098;28;20055;-67
2022/07/27 04:36:19;;;;;;;0.10;0.10;;;;;;;21.54;62.66;98319.06;5051206;28;20049;-67
2022/07/27 04:38:45;;;;;;;0.10;0.10;;;;;;;21.46;63.65;98324.16;5060041;28;20076;-66
2022/07/27 04:41:12;;;;;;;0.10;0.10;;;;;;;21.29;65.59;98315.91;5057986;28;20460;-66
2022/07/27 04:43:39;;;;;;;0.10;0.10;;;;;;;21.05;67.32;98318.78;5055902;28;20084;-67
2022/07/27 04:46:05;;;;;;;0.10;0.10;;;;;;;20.84;68.73;98329.31;5055107;28;20040;-66
2022/07/27 04:48:38;;;;;;;0.10;0.10;;;;;;;20.58;70.67;98321.78;5056416;28;20102;-66
2022/07/27 04:51:06;;;;;;;0.10;0.10;;;;;;;20.85;69.50;98327.50;5057477;28;20114;-66
2022/07/27 04:53:34;;;;;;;0.10;0.10;;;;;;;20.79;69.66;98325.38;5059246;28;20139;-67
2022/07/27 04:56:01;;;;;;;0.10;0.10;;;;;;;21.26;67.52;98325.00;5056854;28;20056;-66
2022/07/27 04:58:28;;;;;;;0.10;0.10;;;;;;;21.50;65.77;98317.59;5059249;28;20131;-70
2022/07/27 05:00:54;;;;;;;0.10;0.10;;;;;;;21.39;66.25;98327.47;5050845;28;20060;-71
2022/07/27 05:03:21;;;;;;;0.10;0.10;;;;;;;21.52;65.51;98326.31;5048781;28;23089;-72
2022/07/27 05:05:47;;;;;;;0.10;0.10;;;;;;;21.73;64.59;98329.81;5062145;28;20068;-72
2022/07/27 05:08:16;;;;;;;0.10;0.10;;;;;;;21.61;64.51;98332.69;5042969;28;20060;-72
2022/07/27 05:10:43;;;;;;;0.10;0.10;;;;;;;21.86;63.15;98338.50;5052643;28;20135;-72
2022/07/27 05:13:09;;;;;;;0.10;0.10;;;;;;;21.81;63.39;98340.69;5050336;28;20052;-72
2022/07/27 05:15:36;;;;;;;0.10;0.10;;;;;;;21.97;62.54;98337.56;5048090;28;20176;-69
2022/07/27 05:18:22;;;;;;;0.10;0.10;;;;;;;21.97;62.91;98336.75;5048533;28;20048;-71
2022/07/27 05:20:48;;;;;;;0.10;0.10;;;;;;;21.95;63.45;98336.88;5050666;28;20148;-71
2022/07/27 05:23:16;;;;;;;0.10;0.10;;;;;;;22.03;62.72;98342.41;5051133;28;20049;-71
2022/07/27 05:25:43;;;;;;;0.00;0.00;;;;;;;22.03;63.11;98347.75;5051120;28;20056;-76
2022/07/27 05:28:13;;;;;;;0.10;0.10;;;;;;;21.76;64.54;98348.22;5048681;28;20048;-69
2022/07/27 05:30:39;;;;;;;0.10;0.10;;;;;;;21.43;67.59;98344.91;5050910;28;20121;-70
2022/07/27 05:33:06;;;;;;;0.10;0.10;;;;;;;21.48;67.51;98348.00;5049350;28;20136;-69
2022/07/27 05:35:33;;;;;;;0.10;0.10;;;;;;;21.40;68.36;98358.50;5049318;28;20119;-69
2022/07/27 05:38:00;;;;;;;0.10;0.10;;;;;;;21.41;67.08;98362.81;5051420;28;20079;-70
2022/07/27 05:40:27;;;;;;;0.10;0.10;;;;;;;21.40;67.44;98363.81;5049796;28;20048;-69
2022/07/27 05:42:54;;;;;;;0.10;0.10;;;;;;;21.56;66.60;98364.22;5045512;28;20076;-70
2022/07/27 05:45:21;;;;;;;0.10;0.10;;;;;;;21.61;66.38;98376.22;5055899;28;21243;-69
2022/07/27 05:47:47;;;;;;;0.10;0.10;;;;;;;21.58;66.98;98378.25;5058427;28;20045;-73
2022/07/27 05:50:16;;;;;;;0.10;0.10;;;;;;;21.73;66.07;98380.47;5057823;28;20049;-69
2022/07/27 05:52:43;;;;;;;0.03;0.03;;;;;;;21.77;65.54;98379.25;5045568;28;20132;-68
2022/07/27 05:55:10;;;;;;;0.10;0.10;;;;;;;21.75;66.69;98377.69;5058191;28;20084;-67
2022/07/27 05:57:37;;;;;;;0.10;0.10;;;;;;;21.71;66.15;98378.94;5050299;28;20459;-68
2022/07/27 06:00:05;;;;;;;0.10;0.10;;;;;;;21.68;65.63;98382.72;5052005;28;20083;-68
2022/07/27 06:02:32;;;;;;;0.10;0.10;;;;;;;21.79;65.83;98387.13;5055756;28;20144;-69
2022/07/27 06:04:58;;;;;;;0.10;0.10;;;;;;;21.33;67.56;98389.28;5060400;28;20127;-69
2022/07/27 06:10:15;;;;;;;0.00;0.00;;;;;;;21.84;65.75;98387.63;5057963;28;20061;-70
2022/07/27 06:12:43;;;;;;;0.10;0.10;;;;;;;21.98;64.59;98386.44;5058103;28;20505;-71
2022/07/27 06:15:10;;;;;;;0.10;0.10;;;;;;;21.85;65.20;98379.47;5064738;28;20076;-71
2022/07/27 06:17:37;;;;;;;0.10;0.10;;;;;;;21.96;64.34;98388.41;5054135;28;20148;-71
2022/07/27 06:20:06;;;;;;;0.10;0.10;;;;;;;22.12;63.97;98386.97;5058732;28;20102;-71
2022/07/27 06:22:46;;;;;;;0.00;0.00;;;;;;;22.22;63.94;98379.00;5048987;28;20131;-70
2022/07/27 06:25:13;;;;;;;0.10;0.10;;;;;;;22.28;63.60;98386.47;5049900;28;20752;-70
2022/07/27 06:27:39;;;;;;;0.10;0.10;;;;;;;22.32;63.87;98385.25;5055969;28;20041;-70
2022/07/27 06:30:06;;;;;;;0.10;0.10;;;;;;;22.34;63.20;98389.44;5054374;28;20067;-72
2022/07/27 06:32:33;;;;;;;0.00;0.00;;;;;;;22.41;61.70;98381.78;5051822;28;20076;-72
2022/07/27 06:35:00;;;;;;;0.10;0.10;;;;;;;22.57;61.52;98384.78;5054129;28;20079;-71
2022/07/27 06:37:28;;;;;;;0.10;0.10;;;;;;;22.62;62.13;98379.94;5054061;28;20040;-72
2022/07/27 06:39:55;;;;;;;0.10;0.10;;;;;;;22.39;62.39;98376.56;5058465;28;20073;-72
2022/07/27 06:42:22;;;;;;;0.10;0.10;;;;;;;22.19;63.10;98377.44;5060030;28;20102;-71
2022/07/27 06:44:48;;;;;;;0.10;0.10;;;;;;;22.27;62.68;98388.28;5057165;28;20088;-72
2022/07/27 06:47:15;;;;;;;0.10;0.10;;;;;;;22.41;61.74;98384.44;5054510;28;20699;-72
2022/07/27 06:49:42;;;;;;;0.10;0.10;;;;;;;22.38;62.15;98385.56;5054174;28;20049;-71
2022/07/27 06:52:08;;;;;;;0.00;0.00;;;;;;;22.59;60.57;98389.03;5059891;28;20087;-72
2022/07/27 06:54:35;;;;;;;0.10;0.10;;;;;;;22.56;60.65;98399.09;5054270;28;20523;-71
2022/07/27 06:57:01;;;;;;;0.10;0.10;;;;;;;22.73;59.85;98392.31;5051230;28;20048;-71
2022/07/27 06:59:30;;;;;;;0.00;0.00;;;;;;;22.81;60.13;98393.31;5047425;28;20463;-71
2022/07/27 07:02:09;;;;;;;0.10;0.10;;;;;;;22.71;60.11;98397.81;5053786;28;20048;-72
2022/07/27 07:04:36;;;;;;;0.10;0.10;;;;;;;22.86;60.21;98387.59;5050454;28;20048;-71
2022/07/27 07:07:02;;;;;;;0.10;0.10;;;;;;;22.66;58.43;98389.34;5055503;28;20053;-71
2022/07/27 07:09:33;;;;;;;0.10;0.10;;;;;;;22.87;58.46;98397.28;5055264;28;20067;-71
2022/07/27 07:11:59;;;;;;;0.10;0.10;;;;;;;23.14;58.58;98393.00;5061052;28;20087;-71
2022/07/27 07:14:26;;;;;;;0.10;0.10;;;;;;;22.88;58.49;98399.00;5051696;28;20088;-71
2022/07/27 07:16:53;;;;;;;0.10;0.10;;;;;;;23.23;57.71;98396.69;5051758;28;20045;-71
2022/07/27 07:19:19;;;;;;;0.00;0.00;;;;;;;23.37;57.85;98388.28;5062270;28;20048;-72
2022/07/27 07:21:46;;;;;;;0.10;0.10;;;;;;;23.71;55.78;98388.69;5049910;28;20131;-72
2022/07/27 07:24:13;;;;;;;0.10;0.10;;;;;;;23.93;54.62;98386.59;5055577;28;20079;-72
2022/07/27 07:26:40;;;;;;;0.10;0.10;;;;;;;24.08;53.54;98383.50;5057847;28;20083;-72
2022/07/27 07:29:06;;;;;;;0.10;0.10;;;;;;;23.94;54.20;98385.59;5057145;28;20080;-72
2022/07/27 07:31:33;;;;;;;0.10;0.10;;;;;;;23.21;56.64;98388.78;5053540;28;20060;-70
2022/07/27 07:34:00;;;;;;;0.10;0.10;;;;;;;23.41;56.97;98376.31;5054134;28;20571;-68
2022/07/27 07:36:26;;;;;;;0.10;0.10;;;;;;;23.37;56.44;98374.06;5050846;28;20484;-69
2022/07/27 07:38:54;;;;;;;0.10;0.10;;;;;;;23.14;57.25;98379.63;5051283;28;20126;-69
2022/07/27 07:41:22;;;;;;;0.10;0.10;;;;;;;23.37;57.45;98382.09;5050893;28;20041;-68
2022/07/27 07:43:49;;;;;;;0.10;0.10;;;;;;;23.49;56.96;98376.44;5056256;28;20881;-68
2022/07/27 07:46:15;;;;;;;0.10;0.10;;;;;;;23.42;56.54;98374.50;5056118;28;20128;-69
2022/07/27 07:48:42;;;;;;;0.00;0.00;;;;;;;23.71;56.87;98372.66;5055010;28;20056;-68
2022/07/27 07:51:10;;;;;;;0.10;0.10;;;;;;;23.88;56.49;98377.28;5052264;28;20041;-69
2022/07/27 07:53:36;;;;;;;0.10;0.10;;;;;;;23.72;55.96;98380.56;5055759;28;20530;-71
2022/07/27 07:56:07;;;;;;;0.00;0.00;;;;;;;23.58;56.75;98377.47;5053650;28;20045;-71
2022/07/27 07:58:34;;;;;;;0.00;0.00;;;;;;;23.69;56.12;98383.50;5051516;28;20644;-71
2022/07/27 08:01:00;;;;;;;0.10;0.10;;;;;;;23.85;55.60;98378.41;5060988;28;20052;-71
2022/07/27 08:03:27;;;;;;;0.10;0.10;;;;;;;24.15;54.31;98379.25;5048677;28;20048;-71
2022/07/27 08:05:53;;;;;;;0.10;0.10;;;;;;;24.13;53.83;98374.03;5050295;28;20095;-70
2022/07/27 08:08:20;;;;;;;0.10;0.10;;;;;;;24.51;53.13;98379.25;5050436;28;20078;-67
2022/07/27 08:10:50;;;;;;;0.10;0.10;;;;;;;24.24;53.45;98381.06;5055623;28;20149;-68
2022/07/27 08:13:17;;;;;;;0.10;0.10;;;;;;;24.73;52.98;98385.22;5052896;28;20080;-73
2022/07/27 08:15:48;;;;;;;0.10;0.10;;;;;;;24.53;53.48;98384.47;5051225;28;20049;-73
2022/07/27 08:18:15;;;;;;;0.10;0.10;;;;;;;24.72;52.40;98388.88;5053777;28;20131;-73
2022/07/27 08:20:42;;;;;;;0.10;0.10;;;;;;;25.02;52.01;98380.59;5054143;28;20103;-73
2022/07/27 08:23:11;;;;;;;0.10;0.10;;;;;;;25.28;51.02;98386.91;5050348;28;20055;-73
2022/07/27 08:25:38;;;;;;;0.00;0.00;;;;;;;25.02;51.11;98389.47;5052039;28;20143;-72
2022/07/27 08:28:05;;;;;;;0.10;0.10;;;;;;;25.01;51.55;98386.94;5056389;28;20041;-71
2022/07/27 08:30:33;;;;;;;0.10;0.10;;;;;;;25.20;50.80;98387.66;5053573;28;20055;-69
2022/07/27 08:33:02;;;;;;;0.00;0.00;;;;;;;24.73;51.17;98390.59;5060046;28;20106;-72
2022/07/27 08:35:31;;;;;;;0.10;0.10;;;;;;;24.79;51.54;98388.19;5059581;28;20407;-71
2022/07/27 08:37:58;;;;;;;0.10;0.10;;;;;;;25.13;50.92;98389.25;5050769;28;20485;-69
2022/07/27 08:40:26;;;;;;;0.10;0.10;;;;;;;25.18;50.31;98395.00;5051216;28;20456;-71
2022/07/27 08:43:18;;;;;;;0.10;0.10;;;;;;;24.99;51.60;98387.09;5048048;28;20048;-69
2022/07/27 08:45:58;;;;;;;0.10;0.10;;;;;;;25.06;50.55;98385.50;5051852;28;20056;-69
2022/07/27 08:48:28;;;;;;;0.00;0.00;;;;;;;25.28;50.92;98387.75;5053236;28;20045;-73
2022/07/27 08:50:54;;;;;;;0.10;0.10;;;;;;;25.24;49.82;98382.84;5056804;28;20052;-72
2022/07/27 08:53:22;;;;;;;0.10;0.10;;;;;;;25.00;50.84;98382.56;5049840;28;20140;-71
2022/07/27 08:55:48;;;;;;;0.00;0.00;;;;;;;25.38;50.35;98384.16;5046538;28;20072;-71
2022/07/27 08:58:16;;;;;;;0.10;0.10;;;;;;;25.54;49.71;98384.34;5049098;28;20505;-72
2022/07/27 09:00:45;;;;;;;0.00;0.00;;;;;;;25.22;50.11;98383.00;5052054;28;20072;-73
2022/07/27 09:03:13;;;;;;;0.00;0.00;;;;;;;25.69;48.93;98383.66;5041222;28;20149;-72
2022/07/27 09:05:51;;;;;;;0.00;0.00;;;;;;;25.80;49.48;98385.25;5054352;28;20056;-72
2022/07/27 09:08:22;;;;;;;;;;;;;;;25.73;49.25;98386.88;5057012;28;20152;-69
2022/07/27 09:10:53;;;;;;;0.10;0.10;;;;;;;26.11;47.51;98389.22;5054108;28;19928;-70
2022/07/27 09:13:23;;;;;;;0.10;0.10;;;;;;;26.41;47.14;98382.53;5048053;28;20044;-70
2022/07/27 09:15:52;;;;;;;0.10;0.10;;;;;;;26.28;47.37;98384.81;5055444;28;20071;-72
2022/07/27 09:18:39;;;;;;;0.10;0.10;;;;;;;26.49;47.75;98383.41;5048149;28;20045;-74
2022/07/27 09:21:08;;;;;;;0.00;0.00;;;;;;;26.44;46.56;98382.22;5053387;28;20045;-75
2022/07/27 09:23:36;;;;;;;0.10;0.10;;;;;;;26.13;47.69;98375.63;5049691;28;20044;-74
2022/07/27 09:26:09;;;;;;;0.10;0.10;;;;;;;26.18;47.77;98379.56;5054860;28;20049;-74
2022/07/27 09:29:04;;;;;;;0.00;0.00;;;;;;;26.24;47.58;98378.91;5048500;28;20095;-70
2022/07/27 09:31:31;;;;;;;0.00;0.00;;;;;;;26.28;47.42;98374.91;5052354;28;20067;-73
2022/07/27 09:34:00;;;;;;;0.00;0.00;;;;;;;26.56;48.11;98384.47;5054153;28;20056;-70
2022/07/27 09:36:28;;;;;;;0.10;0.10;;;;;;;26.01;48.22;98385.75;5055448;28;20179;-69
2022/07/27 09:39:05;;;;;;;0.10;0.10;;;;;;;26.01;48.12;98383.06;5053204;28;20135;-70
2022/07/27 09:41:43;;;;;;;0.00;0.00;;;;;;;26.13;48.05;98392.59;5066095;28;20040;-69
2022/07/27 09:44:12;;;;;;;0.08;0.08;;;;;;;26.23;47.23;98387.97;5055613;28;20424;-74
2022/07/27 09:46:58;;;;;;;0.10;0.10;;;;;;;26.11;47.96;98391.06;5062891;28;20048;-69
2022/07/27 09:49:32;;;;;;;0.00;0.00;;;;;;;25.46;49.37;98395.00;5061277;28;20424;-69
2022/07/27 09:52:00;;;;;;;0.10;0.10;;;;;;;26.03;49.34;98399.00;5051506;28;20217;-70
2022/07/27 09:54:42;;;;;;;0.10;0.10;;;;;;;26.16;48.41;98389.59;5057086;28;20056;-69
2022/07/27 09:57:09;;;;;;;0.10;0.10;;;;;;;26.46;48.08;98380.22;5056203;28;20049;-69
2022/07/27 09:59:36;;;;;;;0.00;0.00;;;;;;;26.04;48.24;98389.97;5053234;28;20120;-74
2022/07/27 10:02:04;;;;;;;0.00;0.00;;;;;;;25.95;48.56;98384.53;5052350;28;20049;-71
2022/07/27 10:04:32;;;;;;;0.10;0.10;;;;;;;26.60;47.90;98379.63;5054885;28;20311;-70
2022/07/27 10:07:00;;;;;;;0.10;0.10;;;;;;;26.54;47.05;98377.56;5056562;28;20053;-72
2022/07/27 10:09:31;;;;;;;0.00;0.00;;;;;;;26.76;46.95;98386.94;5051456;28;20457;-70
2022/07/27 10:11:58;;;;;;;0.10;0.10;;;;;;;26.87;45.97;98381.31;5061200;28;20131;-71
2022/07/27 10:14:24;;;;;;;0.00;0.00;;;;;;;27.13;45.05;98377.50;5060638;28;20127;-71
2022/07/27 10:16:52;;;;;;;0.10;0.10;;;;;;;26.99;44.86;98375.44;5061882;28;20056;-71
2022/07/27 10:19:28;;;;;;;0.10;0.10;;;;;;;26.81;44.95;98388.16;5047059;28;20049;-72
2022/07/27 10:21:55;;;;;;;0.10;0.10;;;;;;;27.10;43.89;98383.19;5050947;28;20102;-71
2022/07/27 10:24:27;;;;;;;0.10;0.10;;;;;;;26.95;43.11;98379.47;5053111;28;20053;-72
2022/07/27 10:26:54;;;;;;;0.10;0.10;;;;;;;27.06;43.69;98376.47;5062981;28;20067;-72
2022/07/27 10:29:21;;;;;;;0.10;0.10;;;;;;;27.62;42.75;98373.09;5042566;28;20128;-72
2022/07/27 10:31:51;;;;;;;0.10;0.10;;;;;;;26.92;44.14;98370.88;5060637;28;20206;-71
2022/07/27 10:34:36;;;;;;;0.00;0.00;;;;;;;27.13;42.88;98382.03;5051232;28;20049;-70
2022/07/27 10:37:29;;;;;;;0.00;0.00;;;;;;;27.22;42.68;98375.66;5051205;28;20102;-69
2022/07/27 10:42:48;;;;;;;0.00;0.00;;;;;;;27.16;42.27;98376.34;5045822;28;20115;-72
2022/07/27 10:45:20;;;;;;;0.00;0.00;;;;;;;27.28;41.13;98375.88;5054526;28;20076;-70
2022/07/27 10:47:51;;;;;;;0.10;0.10;;;;;;;27.34;41.51;98385.13;5052993;28;20075;-81
2022/07/27 10:50:23;;;;;;;0.00;0.00;;;;;;;27.72;40.31;98386.38;5049932;28;20067;-82
2022/07/27 10:52:57;;;;;;;0.00;0.00;;;;;;;27.52;40.47;98375.13;5050906;28;20052;-86
2022/07/27 10:55:30;;;;;;;0.10;0.10;;;;;;;27.71;40.21;98373.94;5060041;28;20056;-77
2022/07/27 10:58:08;;;;;;;0.10;0.10;;;;;;;27.52;43.01;98366.19;5049430;28;20493;-77
2022/07/27 11:00:47;;;;;;;0.10;0.10;;;;;;;27.06;42.92;98375.63;5051808;28;20098;-77
2022/07/27 11:03:31;;;;;;;0.10;0.10;;;;;;;27.41;42.25;98374.59;5060943;28;20535;-81
2022/07/27 11:06:11;;;;;;;0.10;0.10;;;;;;;27.10;42.32;98377.00;5058144;28;20048;-80
2022/07/27 11:09:00;;;;;;;0.00;0.00;;;;;;;27.59;40.45;98368.06;5052740;28;20131;-77
2022/07/27 11:11:48;;;;;;;0.10;0.10;;;;;;;27.73;40.25;98370.09;5049771;28;20045;-76
2022/07/27 11:14:14;;;;;;;0.10;0.10;;;;;;;28.09;40.00;98367.88;5065820;28;20548;-78
2022/07/27 11:16:44;;;;;;;0.10;0.10;;;;;;;27.57;40.39;98363.84;5060877;28;20048;-78
2022/07/27 11:19:29;;;;;;;0.00;0.00;;;;;;;26.96;41.21;98367.69;5047602;28;20048;-78
2022/07/27 11:21:56;;;;;;;0.10;0.10;;;;;;;27.00;40.10;98357.47;5054633;28;20083;-77
2022/07/27 11:24:23;;;;;;;0.10;0.10;;;;;;;26.87;41.27;98357.91;5057079;28;20072;-76
2022/07/27 11:26:51;;;;;;;0.10;0.10;;;;;;;27.22;40.95;98355.00;5051836;28;20075;-75
2022/07/27 11:29:20;;;;;;;0.00;0.00;;;;;;;26.70;40.30;98355.31;5055979;28;20096;-71
2022/07/27 11:31:50;;;;;;;0.10;0.10;;;;;;;26.65;40.80;98352.25;5059236;28;20107;-72
2022/07/27 11:34:28;;;;;;;0.10;0.10;;;;;;;26.73;40.52;98360.38;5061580;28;20063;-73
2022/07/27 11:37:00;;;;;;;0.10;0.10;;;;;;;27.10;39.26;98352.81;5055555;28;20056;-73
2022/07/27 11:39:28;;;;;;;0.10;0.10;;;;;;;27.04;38.56;98351.59;5049692;28;20898;-73
2022/07/27 11:42:15;;;;;;;0.00;0.00;;;;;;;26.45;39.00;98354.34;5051816;28;20131;-75
2022/07/27 11:44:48;;;;;;;0.00;0.00;;;;;;;26.13;38.68;98344.28;5053547;28;20044;-74
2022/07/27 11:47:17;;;;;;;0.10;0.10;;;;;;;26.38;37.98;98340.72;5053691;28;20056;-75
2022/07/27 11:49:44;;;;;;;0.10;0.10;;;;;;;27.08;41.02;98334.13;5058020;28;20095;-74
2022/07/27 11:52:11;;;;;;;0.00;0.00;;;;;;;27.32;40.44;98343.25;5053582;28;20053;-74